Time;durP1;ratioP1;P1;durP2;ratioP2;P2;SDS_P1;SDS_P2;PMS_P1;PMS_P2;Temp;Humidity;BMP_temperature;BMP_pressure;BME280_temperature;BME280_humidity;BME280_pressure;Samples;Min_cycle;Max_cycle;Signal;HPM_P1;HPM_P2
2022/04/27 00:00:36;;;;;;;;;13.75;12.50;;;;;12.51;47.97;101940.03;4941700;28;45326;-47
2022/04/27 00:03:04;;;;;;;;;14.00;11.00;;;;;12.52;47.85;101940.91;4942521;28;46124;-50
2022/04/27 00:05:30;;;;;;;;;11.75;11.00;;;;;12.52;47.96;101931.19;4942641;28;45296;-47
2022/04/27 00:07:56;;;;;;;;;13.50;13.50;;;;;12.51;47.86;101937.41;4942962;28;45217;-48
2022/04/27 00:10:21;;;;;;;;;14.25;11.75;;;;;12.46;47.78;101931.47;4942063;28;45638;-49
2022/04/27 00:12:48;;;;;;;;;14.00;12.00;;;;;12.44;48.21;101938.63;4942750;28;45710;-47
2022/04/27 00:15:15;;;;;;;;;12.00;12.00;;;;;12.45;48.16;101942.13;4942166;28;45273;-48
2022/04/27 00:17:41;;;;;;;;;18.75;12.00;;;;;12.44;48.11;101935.97;4942604;28;45414;-50
2022/04/27 00:20:08;;;;;;;;;13.00;13.00;;;;;12.42;48.20;101934.34;4942438;28;45372;-52
2022/04/27 00:22:35;;;;;;;;;12.75;11.50;;;;;12.42;48.12;101935.22;4942401;28;45387;-52
2022/04/27 00:25:02;;;;;;;;;14.00;12.00;;;;;12.40;48.01;101929.16;4942087;28;45555;-49
2022/04/27 00:27:28;;;;;;;;;11.50;8.50;;;;;12.38;48.38;101930.97;4942423;28;45523;-53
2022/04/27 00:29:55;;;;;;;;;15.25;10.75;;;;;12.34;48.31;101937.34;4942375;28;45307;-49
2022/04/27 00:32:20;;;;;;;;;13.25;10.00;;;;;12.31;48.25;101937.47;4943486;28;45351;-48
2022/04/27 00:34:46;;;;;;;;;10.75;10.75;;;;;12.27;48.43;101931.50;4942520;28;45391;-47
2022/04/27 00:37:11;;;;;;;;;15.75;13.75;;;;;12.23;48.46;101937.84;4942370;28;45509;-47
2022/04/27 00:39:37;;;;;;;;;12.75;11.00;;;;;12.22;48.67;101936.13;4942084;28;45541;-49
2022/04/27 00:42:32;;;;;;;;;17.00;13.75;;;;;12.19;48.46;101927.50;4941857;28;45825;-50
2022/04/27 00:44:57;;;;;;;;;13.75;12.00;;;;;12.16;48.51;101936.41;4933501;28;45385;-52
2022/04/27 00:47:23;;;;;;;;;18.00;13.00;;;;;12.08;48.73;101930.63;4942282;28;45246;-48
2022/04/27 00:49:50;;;;;;;;;16.50;13.00;;;;;12.05;48.71;101925.50;4942297;28;45421;-46
2022/04/27 00:52:16;;;;;;;;;15.50;11.00;;;;;12.04;48.54;101930.88;4942216;28;45255;-47
2022/04/27 00:54:44;;;;;;;;;12.00;11.00;;;;;11.99;49.10;101937.19;4941734;28;45420;-46
2022/04/27 00:57:10;;;;;;;;;12.25;12.25;;;;;11.98;49.15;101932.00;4942157;28;45335;-47
2022/04/27 00:59:36;;;;;;;;;15.00;12.75;;;;;11.96;49.03;101932.06;4942171;28;45384;-47
2022/04/27 01:02:04;;;;;;;;;15.50;12.25;;;;;11.96;48.98;101929.44;4941966;28;46394;-48
2022/04/27 01:04:32;;;;;;;;;12.50;12.25;;;;;11.95;49.42;101930.38;4941994;28;45258;-47
2022/04/27 01:06:58;;;;;;;;;14.75;12.75;;;;;11.91;49.11;101934.06;4942180;28;45481;-48
2022/04/27 01:09:25;;;;;;;;;18.25;17.25;;;;;11.90;49.46;101928.84;4941848;28;45420;-49
2022/04/27 01:11:51;;;;;;;;;12.75;12.25;;;;;11.92;49.93;101927.00;4942438;28;45383;-49
2022/04/27 01:14:16;;;;;;;;;16.25;13.00;;;;;11.93;49.72;101929.59;4943302;28;45369;-47
2022/04/27 01:16:42;;;;;;;;;15.75;15.50;;;;;11.91;49.63;101925.28;4943274;28;45344;-47
2022/04/27 01:19:08;;;;;;;;;15.50;13.50;;;;;11.89;49.66;101920.06;4944713;28;45480;-47
2022/04/27 01:21:33;;;;;;;;;17.00;16.00;;;;;11.86;49.47;101924.66;4944975;28;45275;-46
2022/04/27 01:24:00;;;;;;;;;14.50;13.00;;;;;11.85;49.65;101917.63;4944957;28;45302;-48
2022/04/27 01:26:25;;;;;;;;;21.25;14.50;;;;;11.82;49.79;101923.91;4945147;28;45214;-48
2022/04/27 01:28:50;;;;;;;;;14.25;12.75;;;;;11.80;49.93;101922.25;4945154;28;45630;-50
2022/04/27 01:31:16;;;;;;;;;18.25;14.50;;;;;11.80;49.84;101920.50;4945794;28;46434;-51
2022/04/27 01:33:42;;;;;;;;;21.25;16.50;;;;;11.78;49.86;101932.03;4947593;28;45351;-51
2022/04/27 01:36:09;;;;;;;;;13.00;12.00;;;;;11.75;49.95;101923.31;4945108;28;45323;-53
2022/04/27 01:38:41;;;;;;;;;17.50;13.50;;;;;11.75;49.94;101927.72;4944695;28;45512;-50
2022/04/27 01:41:07;;;;;;;;;14.75;13.75;;;;;11.75;49.88;101925.94;4944560;28;46247;-50
2022/04/27 01:43:34;;;;;;;;;16.00;14.25;;;;;11.77;50.07;101925.00;4944561;28;45466;-51
2022/04/27 01:46:00;;;;;;;;;16.25;14.75;;;;;11.75;50.60;101922.44;4945024;28;45344;-52
2022/04/27 01:48:27;;;;;;;;;18.25;13.25;;;;;11.72;50.36;101925.25;4927416;28;45460;-47
2022/04/27 01:50:53;;;;;;;;;15.75;13.25;;;;;11.72;50.47;101923.44;4944768;28;45287;-46
2022/04/27 01:56:03;;;;;;;;;18.25;14.00;;;;;11.69;50.76;101928.00;4944633;28;45304;-47
2022/04/27 01:58:29;;;;;;;;;16.00;14.75;;;;;11.69;50.67;101928.88;4944838;28;45121;-47
2022/04/27 02:00:55;;;;;;;;;18.00;15.00;;;;;11.70;50.49;101927.09;4944455;28;45268;-51
2022/04/27 02:03:21;;;;;;;;;17.00;13.25;;;;;11.67;50.62;101930.72;4944620;28;45293;-48
2022/04/27 02:05:48;;;;;;;;;14.25;12.25;;;;;11.67;50.87;101928.06;4944748;28;45442;-49
2022/04/27 02:08:13;;;;;;;;;19.25;13.25;;;;;11.68;50.50;101936.84;4944470;28;45773;-48
2022/04/27 02:10:39;;;;;;;;;16.50;14.50;;;;;11.65;51.05;101948.41;4926935;28;45520;-45
2022/04/27 02:13:07;;;;;;;;;17.50;15.75;;;;;11.59;50.91;101943.38;4944434;28;45338;-50
2022/04/27 02:15:34;;;;;;;;;14.50;14.00;;;;;11.51;50.83;101950.78;4927009;28;45315;-47
2022/04/27 02:18:01;;;;;;;;;19.00;16.50;;;;;11.43;50.88;101953.75;4944511;28;45300;-48
2022/04/27 02:20:27;;;;;;;;;16.75;16.00;;;;;11.40;51.42;101953.06;4944167;28;45978;-46
2022/04/27 02:22:53;;;;;;;;;16.25;15.50;;;;;11.35;51.57;101949.75;4944066;28;45301;-48
2022/04/27 02:25:19;;;;;;;;;15.50;14.75;;;;;11.35;51.36;101941.81;4943434;28;45253;-48
2022/04/27 02:27:46;;;;;;;;;21.00;15.75;;;;;11.33;51.25;101949.81;4944567;28;45240;-53
2022/04/27 02:30:12;;;;;;;;;20.25;18.00;;;;;11.31;51.35;101942.91;4944101;28;45367;-52
2022/04/27 02:32:39;;;;;;;;;18.25;16.50;;;;;11.23;51.73;101937.09;4947530;28;45411;-50
2022/04/27 02:35:06;;;;;;;;;25.50;18.75;;;;;11.18;51.69;101938.13;4944154;28;45487;-52
2022/04/27 02:37:32;;;;;;;;;15.00;13.00;;;;;11.15;52.13;101933.00;4944391;28;45244;-51
2022/04/27 02:39:58;;;;;;;;;16.50;16.50;;;;;11.09;52.08;101930.63;4943551;28;46172;-52
2022/04/27 02:42:24;;;;;;;;;19.75;17.75;;;;;11.06;52.21;101936.03;4943734;28;45353;-47
2022/04/27 02:44:49;;;;;;;;;21.00;17.50;;;;;11.04;52.52;101937.84;4944184;28;45321;-51
2022/04/27 02:47:15;;;;;;;;;22.00;19.75;;;;;10.98;52.69;101943.41;4944104;28;45391;-49
2022/04/27 02:52:25;;;;;;;;;21.75;17.50;;;;;10.93;53.20;101933.97;4943872;28;45338;-47
2022/04/27 02:54:50;;;;;;;;;19.25;18.00;;;;;10.92;52.94;101940.16;4943501;28;45308;-50
2022/04/27 02:57:16;;;;;;;;;22.75;16.50;;;;;10.94;53.32;101940.94;4943926;28;45285;-52
2022/04/27 02:59:42;;;;;;;;;23.00;21.50;;;;;10.92;52.97;101933.09;4943548;28;45383;-46
2022/04/27 03:02:08;;;;;;;;;19.75;19.00;;;;;10.90;53.03;101935.81;4943679;28;45243;-50
2022/04/27 03:04:33;;;;;;;;;26.75;22.00;;;;;10.85;53.19;101935.13;4943696;28;45295;-48
2022/04/27 03:06:59;;;;;;;;;22.75;20.00;;;;;10.81;53.38;101927.41;4943998;28;45222;-46
2022/04/27 03:09:25;;;;;;;;;27.00;22.00;;;;;10.78;53.57;101919.63;4942085;28;45405;-48
2022/04/27 03:11:50;;;;;;;;;23.00;20.00;;;;;10.79;53.64;101927.47;4943438;28;45320;-47
2022/04/27 03:14:16;;;;;;;;;21.50;18.00;;;;;10.78;54.00;101927.53;4943474;28;45165;-48
2022/04/27 03:16:41;;;;;;;;;25.00;21.75;;;;;10.79;53.81;101926.63;4943723;28;45209;-48
2022/04/27 03:19:07;;;;;;;;;24.00;21.25;;;;;10.79;54.07;101926.63;4943141;28;45387;-47
2022/04/27 03:21:33;;;;;;;;;22.25;18.25;;;;;10.79;53.89;101927.47;4943336;28;45360;-48
2022/04/27 03:23:58;;;;;;;;;24.75;21.50;;;;;10.78;53.90;101930.19;4942815;28;45407;-49
2022/04/27 03:26:24;;;;;;;;;21.50;18.50;;;;;10.78;54.28;101932.81;4943426;28;45327;-46
2022/04/27 03:28:49;;;;;;;;;29.00;23.00;;;;;10.75;53.90;101925.03;4942821;28;45409;-46
2022/04/27 03:31:15;;;;;;;;;26.50;23.50;;;;;10.73;53.89;101927.72;4943901;28;45294;-49
2022/04/27 03:33:40;;;;;;;;;31.50;22.50;;;;;10.70;54.47;101927.84;4945678;28;45320;-47
2022/04/27 03:36:08;;;;;;;;;27.50;23.75;;;;;10.67;54.40;101924.50;4942990;28;45474;-46
2022/04/27 03:38:34;;;;;;;;;25.25;18.75;;;;;10.66;54.26;101922.75;4942638;28;45473;-46
2022/04/27 03:41:00;;;;;;;;;32.50;23.75;;;;;10.65;54.54;101926.31;4943074;28;45407;-46
2022/04/27 03:43:26;;;;;;;;;30.75;23.25;;;;;10.62;54.50;101922.91;4943090;28;45381;-49
2022/04/27 03:45:51;;;;;;;;;32.25;27.00;;;;;10.58;54.27;101923.94;4943295;28;45166;-48
2022/04/27 03:48:16;;;;;;;;;22.75;22.25;;;;;10.55;54.91;101921.44;4942757;28;46143;-47
2022/04/27 03:50:43;;;;;;;;;32.00;24.25;;;;;10.52;54.45;101923.34;4942940;28;45459;-48
2022/04/27 03:53:09;;;;;;;;;32.75;22.25;;;;;10.48;54.71;101922.59;4942797;28;45472;-48
2022/04/27 03:55:34;;;;;;;;;29.25;25.50;;;;;10.47;55.39;101920.88;4942787;28;45434;-47
2022/04/27 03:58:01;;;;;;;;;29.00;25.50;;;;;10.48;54.77;101924.38;4942694;28;45352;-48
2022/04/27 04:00:26;;;;;;;;;26.50;24.00;;;;;10.47;54.97;101920.03;4942990;28;45448;-47
2022/04/27 04:02:52;;;;;;;;;22.25;17.50;;;;;10.48;55.33;101924.38;4942922;28;45206;-50
2022/04/27 04:05:17;;;;;;;;;28.50;23.25;;;;;10.45;55.58;101921.88;4943014;28;45213;-46
2022/04/27 04:07:43;;;;;;;;;30.75;26.25;;;;;10.41;55.33;101928.16;4942635;28;45200;-48
2022/04/27 04:10:09;;;;;;;;;30.50;26.75;;;;;10.42;55.60;101929.88;4925016;28;45294;-48
2022/04/27 04:12:34;;;;;;;;;33.75;27.50;;;;;10.44;55.85;101922.78;4942747;28;45237;-50
2022/04/27 04:15:00;;;;;;;;;30.25;25.00;;;;;10.45;55.65;101932.41;4942964;28;45423;-52
2022/04/27 04:17:26;;;;;;;;;35.00;25.50;;;;;10.43;55.48;101927.19;4942356;28;46013;-51
2022/04/27 04:19:51;;;;;;;;;30.75;25.75;;;;;10.42;55.90;101925.47;4942605;28;45422;-50
2022/04/27 04:22:17;;;;;;;;;26.00;24.50;;;;;10.41;55.58;101936.06;4942819;28;45545;-51
2022/04/27 04:30:10;;;;;;;;;34.75;28.50;;;;;10.29;56.00;101938.28;4942460;28;45166;-49
2022/04/27 04:32:40;;;;;;;;;36.00;28.00;;;;;10.28;56.25;101941.81;4946329;28;45275;-49
2022/04/27 04:35:06;;;;;;;;;34.50;29.75;;;;;10.28;55.92;101947.09;4942415;28;45661;-47
2022/04/27 04:37:32;;;;;;;;;36.00;30.00;;;;;10.29;56.24;101950.59;4924945;28;45941;-49
2022/04/27 04:39:58;;;;;;;;;37.00;30.00;;;;;10.30;56.64;101939.97;4942010;28;45346;-46
2022/04/27 04:42:23;;;;;;;;;29.75;27.75;;;;;10.30;56.46;101942.63;4942287;28;45454;-51
2022/04/27 04:44:49;;;;;;;;;30.25;27.25;;;;;10.29;56.71;101946.16;4942234;28;45406;-48
2022/04/27 04:47:15;;;;;;;;;30.25;28.50;;;;;10.33;56.25;101952.16;4943471;28;45425;-51
2022/04/27 04:49:40;;;;;;;;;32.75;28.00;;;;;10.33;56.30;101949.53;4945434;28;45221;-47
2022/04/27 04:52:07;;;;;;;;;26.25;25.00;;;;;10.35;56.78;101945.09;4944400;28;45435;-50
2022/04/27 04:54:33;;;;;;;;;43.50;32.75;;;;;10.37;56.17;101950.28;4945360;28;45343;-52
2022/04/27 04:56:59;;;;;;;;;33.75;30.00;;;;;10.38;56.65;101952.00;4945255;28;45432;-50
2022/04/27 04:59:25;;;;;;;;;39.25;31.75;;;;;10.38;56.59;101966.03;4927872;28;45556;-48
2022/04/27 05:01:50;;;;;;;;;40.75;30.25;;;;;10.41;56.29;101960.63;4945293;28;45404;-46
2022/04/27 05:04:16;;;;;;;;;37.25;29.25;;;;;10.44;56.35;101967.56;4945430;28;45325;-46
2022/04/27 05:06:43;;;;;;;;;38.50;34.00;;;;;10.42;56.52;101959.69;4945389;28;46138;-46
2022/04/27 05:09:08;;;;;;;;;36.00;31.25;;;;;10.39;56.81;101974.78;4945014;28;45373;-46
2022/04/27 05:11:34;;;;;;;;;33.50;28.50;;;;;10.34;56.80;101973.16;4941462;28;45799;-46
2022/04/27 05:13:59;;;;;;;;;41.00;26.50;;;;;10.36;56.96;101967.88;4945260;28;45382;-47
2022/04/27 05:16:25;;;;;;;;;37.00;30.25;;;;;10.36;56.67;101970.50;4944356;28;45435;-47
2022/04/27 05:18:50;;;;;;;;;32.25;30.00;;;;;10.32;56.51;101975.00;4945088;28;45306;-47
2022/04/27 05:21:16;;;;;;;;;32.75;26.75;;;;;10.34;56.85;101974.94;4944946;28;45281;-46
2022/04/27 05:23:42;;;;;;;;;37.50;34.25;;;;;10.32;57.29;101979.41;4945184;28;45673;-47
2022/04/27 05:26:08;;;;;;;;;49.75;34.00;;;;;10.34;57.05;101978.44;4944349;28;46262;-50
2022/04/27 05:31:54;;;;;;;;;37.75;34.50;;;;;10.37;57.04;101977.47;4944974;28;45339;-49
2022/04/27 05:34:03;;;;;;;;;35.50;30.00;;;;;10.41;57.05;101979.06;4943657;28;45335;-47
2022/04/27 05:36:29;;;;;;;;;38.25;34.00;;;;;10.41;56.85;101986.09;4944425;28;45480;-50
2022/04/27 05:38:54;;;;;;;;;41.25;34.00;;;;;10.43;56.96;101986.94;4942562;28;45474;-49
2022/04/27 05:41:21;;;;;;;;;32.75;29.50;;;;;10.40;56.65;101992.28;4942787;28;45503;-51
2022/04/27 05:43:47;;;;;;;;;33.50;27.00;;;;;10.39;57.39;101993.22;4944627;28;45420;-48
2022/04/27 05:46:12;;;;;;;;;33.00;29.00;;;;;10.42;56.89;101986.03;4944596;28;45897;-51
2022/04/27 05:48:38;;;;;;;;;35.00;31.00;;;;;10.42;57.23;101995.72;4944401;28;45293;-49
2022/04/27 05:51:03;;;;;;;;;42.75;34.50;;;;;10.41;57.44;102001.91;4944914;28;45289;-47
2022/04/27 05:53:29;;;;;;;;;38.25;33.25;;;;;10.43;57.37;102000.09;4944574;28;45204;-50
2022/04/27 05:55:54;;;;;;;;;35.25;33.75;;;;;10.53;57.03;101998.81;4944335;28;45312;-50
2022/04/27 05:58:20;;;;;;;;;34.50;29.50;;;;;10.66;56.87;102001.81;4944593;28;45223;-51
2022/04/27 06:00:46;;;;;;;;;39.50;33.75;;;;;10.70;57.36;102006.06;4944689;28;45229;-51
2022/04/27 06:03:12;;;;;;;;;38.00;33.00;;;;;10.79;56.56;102010.97;4944747;28;45242;-51
2022/04/27 06:05:37;;;;;;;;;43.75;36.75;;;;;10.85;57.18;102019.50;4944495;28;45381;-48
2022/04/27 06:08:03;;;;;;;;;36.75;30.25;;;;;10.94;56.65;102012.97;4944270;28;45260;-48
2022/04/27 06:10:28;;;;;;;;;33.25;29.50;;;;;11.06;56.74;102020.41;4944364;28;45458;-48
2022/04/27 06:12:54;;;;;;;;;33.50;29.50;;;;;11.17;56.12;102012.91;4944801;28;45310;-51
2022/04/27 06:15:20;;;;;;;;;41.75;34.00;;;;;11.19;56.25;102015.47;4944192;28;45297;-49
2022/04/27 06:17:45;;;;;;;;;38.50;33.00;;;;;11.27;56.09;102023.06;4943752;28;45319;-48
2022/04/27 06:20:11;;;;;;;;;36.25;29.25;;;;;11.22;56.20;102031.19;4944354;28;45481;-49
2022/04/27 06:22:37;;;;;;;;;38.00;33.25;;;;;11.32;55.71;102036.94;4944483;28;45470;-48
2022/04/27 06:25:06;;;;;;;;;34.00;29.50;;;;;11.37;56.27;102040.22;4943900;28;45905;-49
2022/04/27 06:27:32;;;;;;;;;41.25;34.75;;;;;11.44;55.99;102039.03;4944537;28;45245;-48
2022/04/27 06:29:58;;;;;;;;;40.25;34.75;;;;;11.52;54.98;102044.00;4944255;28;45416;-49
2022/04/27 06:32:23;;;;;;;;;38.25;33.25;;;;;11.61;55.65;102041.84;4947305;28;45414;-48
2022/04/27 06:34:49;;;;;;;;;37.25;34.00;;;;;11.69;55.50;102038.84;4944079;28;45343;-52
2022/04/27 06:37:15;;;;;;;;;32.00;30.25;;;;;11.67;54.94;102036.28;4943710;28;45356;-49
2022/04/27 06:39:40;;;;;;;;;38.25;34.00;;;;;11.63;55.25;102034.72;4943941;28;45235;-49
2022/04/27 06:42:06;;;;;;;;;31.50;29.00;;;;;11.66;55.25;102037.22;4943806;28;46139;-49
2022/04/27 06:44:34;;;;;;;;;42.50;32.75;;;;;11.68;55.63;102045.06;4943066;28;45930;-48
2022/04/27 06:47:00;;;;;;;;;36.25;31.00;;;;;11.76;55.20;102056.16;4943807;28;45333;-50
2022/04/27 06:49:25;;;;;;;;;34.50;29.75;;;;;11.78;55.01;102051.69;4943935;28;45384;-49
2022/04/27 06:51:50;;;;;;;;;41.00;35.00;;;;;11.81;54.62;102056.00;4944054;28;45609;-54
2022/04/27 06:54:16;;;;;;;;;36.00;31.25;;;;;11.88;55.11;102055.66;4943479;28;45233;-50
2022/04/27 06:56:41;;;;;;;;;43.25;32.75;;;;;11.95;54.63;102051.84;4943286;28;45211;-47
2022/04/27 06:59:07;;;;;;;;;42.50;34.00;;;;;12.01;54.63;102056.00;4943861;28;45255;-48
2022/04/27 07:01:32;;;;;;;;;37.50;31.50;;;;;12.07;54.62;102057.47;4943619;28;45647;-50
2022/04/27 07:04:06;;;;;;;;;43.25;35.25;;;;;12.08;54.28;102067.97;4943254;28;46332;-52
2022/04/27 07:06:32;;;;;;;;;42.50;36.00;;;;;12.13;54.42;102063.34;4943721;28;45464;-49
2022/04/27 07:08:57;;;;;;;;;40.25;33.25;;;;;12.19;54.49;102064.88;4925351;28;45388;-53
2022/04/27 07:11:22;;;;;;;;;43.75;36.50;;;;;12.28;53.97;102067.09;4942335;28;45341;-51
2022/04/27 07:13:48;;;;;;;;;35.75;33.50;;;;;12.36;54.09;102069.41;4942871;28;46317;-48
2022/04/27 07:16:13;;;;;;;;;40.00;34.75;;;;;12.37;54.42;102071.09;4943153;28;45407;-50
2022/04/27 07:18:39;;;;;;;;;39.25;33.75;;;;;12.41;53.77;102076.19;4943724;28;45843;-52
2022/04/27 07:21:08;;;;;;;;;42.00;34.75;;;;;12.41;53.90;102078.84;4943532;28;45300;-51
2022/04/27 07:23:33;;;;;;;;;35.50;32.00;;;;;12.44;54.04;102075.19;4942363;28;46257;-49
2022/04/27 07:25:59;;;;;;;;;43.00;34.75;;;;;12.47;53.69;102070.59;4943369;28;45290;-50
2022/04/27 07:28:24;;;;;;;;;41.25;35.50;;;;;12.49;53.77;102075.84;4943468;28;45433;-50
2022/04/27 07:30:49;;;;;;;;;35.25;29.75;;;;;12.56;53.86;102079.94;4943514;28;45567;-51
2022/04/27 07:33:15;;;;;;;;;38.75;32.25;;;;;12.66;53.71;102083.00;4946410;28;46923;-52
2022/04/27 07:35:40;;;;;;;;;41.75;33.75;;;;;12.67;53.55;102074.13;4943035;28;45231;-52
2022/04/27 07:38:06;;;;;;;;;36.25;30.25;;;;;12.66;53.33;102078.56;4943111;28;45296;-51
2022/04/27 07:40:32;;;;;;;;;33.00;28.00;;;;;12.70;53.58;102084.56;4943145;28;45426;-48
2022/04/27 07:42:59;;;;;;;;;33.25;27.75;;;;;12.77;53.75;102086.84;4942895;28;45343;-52
2022/04/27 07:45:25;;;;;;;;;39.25;33.25;;;;;12.89;53.21;102081.91;4942994;28;45371;-50
2022/04/27 07:47:50;;;;;;;;;32.00;30.75;;;;;12.95;53.75;102086.88;4943180;28;45345;-49
2022/04/27 07:50:17;;;;;;;;;41.00;34.25;;;;;13.01;53.01;102086.59;4943110;28;45325;-49
2022/04/27 07:52:43;;;;;;;;;39.00;29.00;;;;;13.00;52.85;102088.41;4942673;28;46841;-52
2022/04/27 07:55:10;;;;;;;;;39.25;31.00;;;;;13.02;53.26;102098.91;4942889;28;45332;-51
2022/04/27 07:57:37;;;;;;;;;45.00;32.00;;;;;13.04;52.88;102099.72;4925444;28;45168;-49
2022/04/27 08:00:09;;;;;;;;;37.50;33.25;;;;;13.07;53.00;102099.53;4943176;28;45293;-52
2022/04/27 08:02:36;;;;;;;;;39.25;31.75;;;;;13.08;52.87;102101.25;4942770;28;46379;-49
2022/04/27 08:05:02;;;;;;;;;41.25;35.75;;;;;13.07;52.81;102097.75;4942863;28;45511;-48
2022/04/27 08:07:46;;;;;;;;;36.75;34.00;;;;;13.09;52.97;102097.69;4942671;28;45328;-49
2022/04/27 08:10:19;;;;;;;;;39.00;32.25;;;;;13.14;52.93;102093.88;4942628;28;45171;-50
2022/04/27 08:12:49;;;;;;;;;38.50;34.00;;;;;13.23;53.15;102097.06;4942495;28;45276;-48
2022/04/27 08:15:21;;;;;;;;;42.75;32.75;;;;;13.25;52.63;102096.03;4942784;28;45326;-48
2022/04/27 08:18:01;;;;;;;;;33.00;27.50;;;;;13.29;53.21;102096.75;4942579;28;45304;-51
2022/04/27 08:23:20;;;;;;;;;44.00;35.00;;;;;13.36;52.86;102096.38;4941810;28;45786;-51
2022/04/27 08:25:46;;;;;;;;;39.00;36.00;;;;;13.44;53.19;102101.31;4942367;28;45380;-49
2022/04/27 08:28:13;;;;;;;;;50.75;36.00;;;;;13.46;52.78;102099.44;4942683;28;45413;-52
2022/04/27 08:30:41;;;;;;;;;38.50;35.25;;;;;13.48;52.54;102099.34;4942682;28;45224;-51
2022/04/27 08:33:07;;;;;;;;;42.00;32.75;;;;;13.51;52.85;102097.41;4945576;28;45474;-49
2022/04/27 08:35:33;;;;;;;;;45.25;36.25;;;;;13.55;53.02;102098.97;4942120;28;45387;-48
2022/04/27 08:37:59;;;;;;;;;43.50;33.00;;;;;13.63;53.01;102107.38;4942171;28;45350;-47
2022/04/27 08:40:25;;;;;;;;;57.00;36.00;;;;;13.73;52.91;102112.22;4941892;28;45531;-50
2022/04/27 08:42:52;;;;;;;;;42.00;36.75;;;;;13.83;52.70;102108.19;4942060;28;45431;-47
2022/04/27 08:45:17;;;;;;;;;40.50;34.75;;;;;13.93;52.69;102104.97;4941905;28;45333;-48
2022/04/27 08:47:48;;;;;;;;;40.00;33.25;;;;;14.02;52.58;102108.09;4942408;28;45475;-48
2022/04/27 08:50:31;;;;;;;;;38.75;34.00;;;;;14.02;52.44;102106.28;4942311;28;45296;-51
2022/04/27 08:52:57;;;;;;;;;43.00;36.00;;;;;14.04;52.12;102103.56;4941644;28;47258;-51
2022/04/27 08:55:23;;;;;;;;;44.75;33.25;;;;;14.08;52.49;102095.38;4942050;28;45283;-48
2022/04/27 08:57:49;;;;;;;;;46.50;37.50;;;;;14.17;52.34;102104.63;4942108;28;45383;-51
2022/04/27 09:00:18;;;;;;;;;42.00;33.75;;;;;14.26;52.35;102098.84;4942300;28;45276;-52
2022/04/27 09:02:44;;;;;;;;;39.75;34.50;;;;;14.32;52.28;102098.53;4941915;28;46110;-52
2022/04/27 09:05:13;;;;;;;;;38.25;34.50;;;;;14.40;52.23;102095.47;4942222;28;45156;-54
2022/04/27 09:07:43;;;;;;;;;43.00;35.25;;;;;14.47;52.17;102096.88;4924681;28;45502;-49
2022/04/27 09:10:15;;;;;;;;;38.25;32.75;;;;;14.57;52.23;102100.75;4941862;28;45531;-53
2022/04/27 09:12:47;;;;;;;;;45.25;37.50;;;;;14.70;52.20;102092.97;4942110;28;45451;-53
2022/04/27 09:15:14;;;;;;;;;39.25;33.25;;;;;14.83;51.82;102098.44;4941993;28;45478;-53
2022/04/27 09:23:28;;;;;;;;;33.75;31.25;;;;;15.09;51.26;102092.56;4941695;28;45352;-49
2022/04/27 09:25:59;;;;;;;;;39.50;33.00;;;;;15.19;51.23;102092.88;4941622;28;45354;-51
2022/04/27 09:28:32;;;;;;;;;42.25;35.50;;;;;15.26;51.22;102095.09;4941820;28;45217;-51
2022/04/27 09:30:59;;;;;;;;;46.50;34.50;;;;;15.27;50.80;102096.81;4942036;28;45263;-52
2022/04/27 09:33:37;;;;;;;;;48.25;36.50;;;;;15.31;50.74;102094.81;4946634;28;45465;-50
2022/04/27 09:36:22;;;;;;;;;38.50;34.00;;;;;15.37;51.08;102091.81;4944945;28;45363;-50
2022/04/27 09:38:48;;;;;;;;;37.00;31.50;;;;;15.41;50.80;102098.69;4944683;28;45431;-52
2022/04/27 09:41:14;;;;;;;;;46.00;36.00;;;;;15.50;51.14;102097.28;4944796;28;45384;-51
2022/04/27 09:43:47;;;;;;;;;46.75;35.50;;;;;15.56;50.98;102102.22;4944661;28;46271;-49
2022/04/27 09:46:22;;;;;;;;;39.25;34.00;;;;;15.69;51.04;102089.13;4945110;28;45569;-48
2022/04/27 09:49:08;;;;;;;;;42.50;35.25;;;;;15.83;51.37;102090.00;4944874;28;45430;-50
2022/04/27 09:51:36;;;;;;;;;47.50;37.50;;;;;15.97;50.96;102085.69;4944809;28;45386;-52
2022/04/27 09:54:04;;;;;;;;;32.00;29.50;;;;;16.09;50.53;102088.44;4927095;28;45359;-49
2022/04/27 09:56:35;;;;;;;;;46.25;38.75;;;;;16.20;49.98;102098.44;4944394;28;45418;-50
2022/04/27 09:59:07;;;;;;;;;47.75;36.75;;;;;16.27;50.01;102089.09;4927271;28;45369;-49
2022/04/27 10:01:36;;;;;;;;;50.50;37.75;;;;;16.35;49.95;102084.19;4944829;28;45405;-47
2022/04/27 10:04:06;;;;;;;;;48.75;37.50;;;;;16.44;49.61;102077.44;4927188;28;46374;-52
2022/04/27 10:06:34;;;;;;;;;47.75;39.00;;;;;16.43;49.71;102084.56;4944652;28;45244;-53
2022/04/27 10:09:00;;;;;;;;;45.00;36.75;;;;;16.51;49.29;102081.44;4944190;28;45325;-50
2022/04/27 10:11:33;;;;;;;;;39.50;27.00;;;;;16.57;49.40;102082.81;4944572;28;45483;-48
2022/04/27 10:14:00;;;;;;;;;37.50;33.75;;;;;16.65;49.33;102083.19;4944292;28;47261;-49
2022/04/27 10:16:27;;;;;;;;;42.75;35.50;;;;;16.74;48.94;102074.66;4944166;28;45328;-49
2022/04/27 10:18:53;;;;;;;;;50.50;37.75;;;;;16.78;48.86;102076.19;4943992;28;45331;-50
2022/04/27 10:21:56;;;;;;;;;39.25;34.75;;;;;16.81;48.88;102068.00;4944397;28;45367;-49
2022/04/27 10:24:34;;;;;;;;;44.00;35.75;;;;;16.83;48.74;102059.94;4943959;28;47229;-53
2022/04/27 10:27:26;;;;;;;;;42.50;35.25;;;;;16.89;49.02;102062.16;4943906;28;45320;-52
2022/04/27 10:30:02;;;;;;;;;40.50;35.00;;;;;16.98;48.52;102043.81;4944401;28;45285;-50
2022/04/27 10:32:41;;;;;;;;;48.75;38.50;;;;;17.05;48.43;102046.91;4944067;28;45342;-49
2022/04/27 10:35:17;;;;;;;;;43.75;35.75;;;;;17.08;48.34;102043.22;4944014;28;45316;-51
2022/04/27 10:38:02;;;;;;;;;39.50;33.25;;;;;17.14;47.96;102038.34;4943681;28;45507;-51
2022/04/27 10:40:34;;;;;;;;;38.75;34.50;;;;;17.09;47.71;102032.44;4943897;28;45756;-48
2022/04/27 10:43:04;;;;;;;;;45.00;36.00;;;;;17.10;47.85;102027.97;4944168;28;45236;-49
2022/04/27 10:45:30;;;;;;;;;40.50;35.25;;;;;17.14;47.58;102030.34;4925455;28;48500;-49
2022/04/27 10:47:55;;;;;;;;;46.00;34.50;;;;;17.17;47.79;102026.63;4926121;28;45683;-49
2022/04/27 10:50:28;;;;;;;;;39.00;32.25;;;;;17.03;47.50;102031.03;4943629;28;45330;-50
2022/04/27 10:52:55;;;;;;;;;37.50;33.50;;;;;17.08;47.18;102028.09;4943253;28;45241;-52
2022/04/27 10:55:35;;;;;;;;;40.00;33.25;;;;;17.18;47.54;102029.19;4943346;28;46279;-49
2022/04/27 10:58:31;;;;;;;;;37.25;32.50;;;;;17.22;47.71;102033.34;4943381;28;45254;-52
2022/04/27 11:01:02;;;;;;;;;39.50;33.75;;;;;17.27;47.21;102030.38;4943714;28;45316;-50
2022/04/27 11:03:35;;;;;;;;;38.50;33.00;;;;;17.27;47.07;102035.69;4943993;28;45318;-50
2022/04/27 11:06:12;;;;;;;;;34.00;32.00;;;;;17.28;47.08;102013.44;4925997;28;46069;-49
2022/04/27 11:08:59;;;;;;;;;41.25;34.50;;;;;17.38;47.15;102014.53;4943448;28;45336;-52
2022/04/27 11:11:26;;;;;;;;;42.25;32.00;;;;;17.40;47.08;102009.94;4943507;28;45242;-48
2022/04/27 11:14:03;;;;;;;;;35.50;30.75;;;;;17.39;47.08;102010.06;4942881;28;45452;-49
2022/04/27 11:16:28;;;;;;;;;34.50;32.25;;;;;17.48;46.74;102010.28;4942857;28;46331;-50
2022/04/27 11:19:00;;;;;;;;;36.00;31.75;;;;;17.69;46.97;102007.09;4942552;28;45311;-48
2022/04/27 11:21:30;;;;;;;;;37.50;31.25;;;;;17.93;46.79;102004.56;4943619;28;45473;-50
2022/04/27 11:23:58;;;;;;;;;33.50;23.50;;;;;18.13;45.68;102012.88;4943251;28;45249;-48
2022/04/27 11:26:23;;;;;;;;;27.25;25.00;;;;;18.18;44.74;102011.72;4942951;28;46983;-50
2022/04/27 11:28:53;;;;;;;;;22.50;21.75;;;;;18.14;44.02;102003.06;4942935;28;45241;-48
2022/04/27 11:31:19;;;;;;;;;29.50;24.50;;;;;18.26;43.95;101996.00;4944137;28;45336;-50
2022/04/27 11:33:45;;;;;;;;;29.00;26.50;;;;;18.39;43.92;102003.00;4945364;28;45320;-52